Time;durP1;ratioP1;P1;durP2;ratioP2;P2;SDS_P1;SDS_P2;PMS_P1;PMS_P2;Temp;Humidity;BMP_temperature;BMP_pressure;BME280_temperature;BME280_humidity;BME280_pressure;Samples;Min_cycle;Max_cycle;Signal;HPM_P1;HPM_P2
2024/04/11 00:02:20;;;;;;;0.00;0.00;;;;;;;7.73;70.73;102653.78;16614850;26;20446;-46
2024/04/11 00:09:57;;;;;;;0.00;0.00;;;;;;;7.74;71.14;102663.50;16563871;26;20119;-49
2024/04/11 00:17:37;;;;;;;0.00;0.00;;;;;;;7.68;70.97;102664.88;16684760;26;20000;-48
2024/04/11 00:25:17;;;;;;;0.00;0.00;;;;;;;7.53;71.60;102670.84;16654828;26;20008;-47
2024/04/11 00:32:57;;;;;;;0.00;0.00;;;;;;;7.61;70.64;102662.97;16619125;26;20048;-47
2024/04/11 00:40:35;;;;;;;0.10;0.10;;;;;;;7.50;71.07;102658.59;16656136;26;20234;-47
2024/04/11 00:48:13;;;;;;;1.17;0.95;;;;;;;7.46;70.64;102667.03;16658176;26;20091;-48
2024/04/11 00:55:49;;;;;;;0.20;0.20;;;;;;;7.28;71.39;102670.44;16676615;26;20475;-47
2024/04/11 01:03:28;;;;;;;0.00;0.00;;;;;;;7.40;70.83;102665.78;16664393;26;20069;-49
2024/04/11 01:11:04;;;;;;;0.10;0.10;;;;;;;7.46;70.64;102675.94;16574452;26;20058;-48
2024/04/11 01:18:42;;;;;;;0.00;0.00;;;;;;;7.19;72.69;102663.28;16667265;26;20085;-46
2024/04/11 01:26:25;;;;;;;0.00;0.00;;;;;;;7.30;72.01;102659.59;16667533;26;20019;-52
2024/04/11 01:34:01;;;;;;;0.00;0.00;;;;;;;7.23;72.37;102661.16;16633348;26;20001;-50
2024/04/11 01:41:42;;;;;;;0.00;0.00;;;;;;;6.89;73.46;102650.88;16674891;26;20209;-50
2024/04/11 01:49:17;;;;;;;0.10;0.10;;;;;;;6.80;75.22;102657.06;16624337;26;20355;-49
2024/04/11 01:56:55;;;;;;;0.10;0.10;;;;;;;6.79;74.47;102652.69;16649176;26;20000;-50
2024/04/11 02:04:33;;;;;;;0.00;0.00;;;;;;;6.97;73.09;102661.72;16666122;26;19997;-48
2024/04/11 02:12:11;;;;;;;0.30;0.30;;;;;;;6.70;75.14;102658.88;16649422;26;20024;-52
2024/04/11 02:19:47;;;;;;;0.00;0.00;;;;;;;6.95;73.66;102652.16;16674786;26;20016;-49
2024/04/11 02:27:29;;;;;;;0.10;0.10;;;;;;;6.86;73.22;102659.19;16672415;26;20019;-49
2024/04/11 02:35:05;;;;;;;0.00;0.00;;;;;;;6.90;73.33;102661.44;16634050;26;20000;-50
2024/04/11 02:42:44;;;;;;;0.00;0.00;;;;;;;6.77;73.04;102668.03;16672857;26;20069;-49
2024/04/11 02:50:23;;;;;;;0.13;0.13;;;;;;;6.57;73.22;102665.28;16641342;26;20436;-48
2024/04/11 02:58:02;;;;;;;0.00;0.00;;;;;;;6.30;74.21;102654.41;16631625;26;20429;-46
2024/04/11 03:05:39;;;;;;;0.13;0.13;;;;;;;6.46;73.57;102656.56;16677173;26;20349;-48
2024/04/11 03:13:19;;;;;;;0.70;0.38;;;;;;;6.19;74.14;102658.00;16637346;26;20476;-48
2024/04/11 03:20:56;;;;;;;0.20;0.20;;;;;;;6.41;73.05;102656.97;16660083;26;20036;-45
2024/04/11 03:28:34;;;;;;;0.00;0.00;;;;;;;6.32;73.79;102660.44;16676551;26;20087;-49
2024/04/11 03:36:13;;;;;;;0.40;0.20;;;;;;;5.95;73.94;102666.31;16650801;26;20143;-48
2024/04/11 03:43:54;;;;;;;0.55;0.30;;;;;;;6.24;74.73;102660.28;16641040;26;20000;-49
2024/04/11 03:51:37;;;;;;;0.03;0.03;;;;;;;6.27;74.02;102650.19;16635389;26;20001;-50
2024/04/11 03:59:16;;;;;;;0.50;0.50;;;;;;;6.24;73.70;102655.78;16593303;26;20338;-49
2024/04/11 04:06:52;;;;;;;0.08;0.05;;;;;;;6.24;73.45;102663.78;16657689;26;20493;-47
2024/04/11 04:14:30;;;;;;;0.28;0.28;;;;;;;6.10;74.15;102670.31;16670978;26;20013;-50
2024/04/11 04:22:08;;;;;;;0.00;0.00;;;;;;;5.90;74.16;102673.84;16668373;26;20499;-47
2024/04/11 04:29:46;;;;;;;0.00;0.00;;;;;;;5.62;76.60;102683.34;16682624;26;20362;-47
2024/04/11 04:37:21;;;;;;;0.00;0.00;;;;;;;5.92;75.22;102673.72;16656538;26;20004;-48
2024/04/11 04:45:01;;;;;;;0.20;0.20;;;;;;;6.01;75.85;102671.13;16649402;26;20445;-48
2024/04/11 04:52:43;;;;;;;0.00;0.00;;;;;;;5.92;75.58;102685.22;16665877;26;20489;-49
2024/04/11 05:00:24;;;;;;;0.60;0.32;;;;;;;5.96;76.30;102676.00;16672830;26;20004;-48
2024/04/11 05:08:07;;;;;;;0.88;0.10;;;;;;;5.75;77.88;102669.84;16619632;26;20015;-47
2024/04/11 05:15:49;;;;;;;0.10;0.10;;;;;;;6.81;75.92;102680.94;16624730;26;20519;-49
2024/04/11 05:23:32;;;;;;;0.22;0.22;;;;;;;7.45;73.49;102673.38;16626939;26;20000;-46
2024/04/11 05:31:16;;;;;;;0.00;0.00;;;;;;;7.36;72.32;102672.38;16640591;26;20782;-50
2024/04/11 05:38:53;;;;;;;1.85;1.60;;;;;;;7.77;72.50;102670.38;16657988;26;19996;-48
2024/04/11 05:46:31;;;;;;;0.40;0.40;;;;;;;8.85;69.09;102677.78;16671328;26;20042;-46
2024/04/11 05:54:10;;;;;;;0.10;0.10;;;;;;;10.87;61.44;102675.78;16654559;26;20077;-49
2024/04/11 06:01:50;;;;;;;0.00;0.00;;;;;;;10.12;64.84;102681.00;16638131;26;20396;-49
2024/04/11 06:09:26;;;;;;;0.10;0.10;;;;;;;10.60;64.23;102674.19;16667022;26;20012;-49
2024/04/11 06:17:07;;;;;;;28.33;1.02;;;;;;;11.91;60.58;102673.28;16645553;26;19997;-49
2024/04/11 06:24:42;;;;;;;0.00;0.00;;;;;;;12.44;58.62;102679.00;16612416;26;20015;-50
2024/04/11 06:32:20;;;;;;;0.00;0.00;;;;;;;12.35;58.74;102690.81;16677561;26;20020;-52
2024/04/11 06:39:58;;;;;;;0.17;0.17;;;;;;;11.95;58.53;102677.31;16634625;26;20001;-51
2024/04/11 06:47:37;;;;;;;0.05;0.05;;;;;;;12.37;58.31;102680.72;16677062;26;20000;-48
2024/04/11 06:55:14;;;;;;;0.22;0.22;;;;;;;13.51;54.91;102667.34;16646114;26;20020;-52
2024/04/11 07:02:51;;;;;;;2.70;0.43;;;;;;;13.56;55.26;102685.69;16647919;26;20011;-49
2024/04/11 07:10:36;;;;;;;0.00;0.00;;;;;;;14.74;53.25;102676.78;16644137;26;20082;-51
2024/04/11 07:18:15;;;;;;;0.05;0.05;;;;;;;16.22;47.91;102686.81;16674035;26;20011;-49
2024/04/11 07:25:50;;;;;;;24.95;1.75;;;;;;;18.22;44.49;102672.50;16676542;26;20011;-51
2024/04/11 07:33:28;;;;;;;0.05;0.05;;;;;;;17.78;43.26;102674.06;16677796;26;20002;-51
2024/04/11 07:41:16;;;;;;;0.10;0.10;;;;;;;18.26;42.43;102660.97;16675062;26;20004;-49
2024/04/11 07:48:54;;;;;;;0.57;0.57;;;;;;;18.54;41.69;102657.09;16655119;26;20027;-47
2024/04/11 07:56:30;;;;;;;0.28;0.28;;;;;;;17.59;42.99;102654.00;16657547;26;20004;-51
2024/04/11 08:04:11;;;;;;;0.35;0.35;;;;;;;18.26;42.57;102652.81;16684616;26;20430;-47
2024/04/11 08:11:46;;;;;;;0.30;0.22;;;;;;;17.56;42.99;102657.13;16657700;26;20095;-50
2024/04/11 08:19:24;;;;;;;0.22;0.22;;;;;;;17.59;40.52;102654.81;16688523;26;20472;-50
2024/04/11 08:26:59;;;;;;;1.65;0.93;;;;;;;19.59;37.89;102661.00;16692509;26;20014;-46
2024/04/11 08:34:38;;;;;;;0.38;0.30;;;;;;;18.61;36.22;102661.47;16615970;26;19997;-48
2024/04/11 08:42:14;;;;;;;0.00;0.00;;;;;;;19.88;34.21;102675.00;16640171;26;20487;-49
2024/04/11 08:49:56;;;;;;;0.47;0.30;;;;;;;20.43;33.19;102663.28;16669067;26;20076;-47
2024/04/11 08:57:32;;;;;;;0.08;0.00;;;;;;;19.44;32.84;102665.09;16626305;26;20330;-48
2024/04/11 09:05:28;;;;;;;0.10;0.10;;;;;;;19.51;34.69;102668.63;16580841;26;19997;-51
2024/04/11 09:13:23;;;;;;;0.00;0.00;;;;;;;19.32;32.35;102675.91;16712254;21;20011;-50
2024/04/11 09:21:07;;;;;;;0.00;0.00;;;;;;;19.77;31.59;102684.78;16719524;26;20007;-48
2024/04/11 09:28:43;;;;;;;0.63;0.32;;;;;;;18.82;30.62;102683.97;16693776;26;19996;-48
2024/04/11 09:36:27;;;;;;;0.00;0.00;;;;;;;19.95;30.99;102689.38;16686371;26;20032;-50
2024/04/11 09:44:06;;;;;;;0.00;0.00;;;;;;;18.80;33.00;102681.47;16691701;26;20130;-50
2024/04/11 09:51:49;;;;;;;0.00;0.00;;;;;;;19.71;32.03;102674.75;16649744;26;20007;-49
2024/04/11 09:59:26;;;;;;;0.10;0.10;;;;;;;19.47;32.45;102683.75;16685944;26;20001;-49
2024/04/11 10:07:08;;;;;;;0.00;0.00;;;;;;;19.85;33.10;102683.63;16661309;26;20004;-50
2024/04/11 10:14:44;;;;;;;0.03;0.03;;;;;;;18.79;32.77;102687.13;16688270;26;20000;-48
2024/04/11 10:22:24;;;;;;;0.00;0.00;;;;;;;19.01;31.26;102688.47;16663678;26;20007;-48
2024/04/11 10:30:05;;;;;;;0.00;0.00;;;;;;;18.24;34.11;102684.84;16660081;26;20106;-49
2024/04/11 10:37:46;;;;;;;0.25;0.10;;;;;;;17.86;34.11;102682.00;16657810;26;20000;-48
2024/04/11 10:45:23;;;;;;;0.00;0.00;;;;;;;18.05;33.81;102691.16;16693592;26;20004;-49
2024/04/11 10:53:05;;;;;;;0.00;0.00;;;;;;;17.61;34.37;102695.34;16682224;26;20333;-49
2024/04/11 11:08:35;;;;;;;0.00;0.00;;;;;;;18.27;34.37;102676.22;16664623;26;20443;-48
2024/04/11 11:16:21;;;;;;;0.00;0.00;;;;;;;17.74;35.55;102681.78;16657882;26;20021;-51
2024/04/11 11:24:06;;;;;;;0.00;0.00;;;;;;;18.01;35.36;102676.31;16661457;26;19996;-52
2024/04/11 11:31:43;;;;;;;1.10;0.40;;;;;;;17.91;34.75;102675.94;16696230;26;20004;-49
2024/04/11 11:39:25;;;;;;;0.00;0.00;;;;;;;18.07;35.10;102659.16;16690740;26;20691;-50
2024/04/11 11:47:06;;;;;;;0.40;0.30;;;;;;;18.67;35.45;102667.09;16706164;26;20069;-49
2024/04/11 11:54:44;;;;;;;0.00;0.00;;;;;;;18.15;34.23;102661.66;16697125;26;20031;-52
2024/04/11 12:02:23;;;;;;;0.00;0.00;;;;;;;18.55;33.04;102650.59;16697511;26;20345;-50
2024/04/11 12:10:12;;;;;;;0.00;0.00;;;;;;;17.40;33.91;102654.84;16695980;26;20073;-49
2024/04/11 12:17:50;;;;;;;0.00;0.00;;;;;;;17.64;32.70;102651.47;16661009;26;20104;-52
2024/04/11 12:25:28;;;;;;;0.13;0.00;;;;;;;18.08;33.88;102637.19;16687646;26;20056;-48
2024/04/11 12:33:05;;;;;;;0.00;0.00;;;;;;;18.50;33.33;102631.38;16689510;26;20019;-49
2024/04/11 12:40:48;;;;;;;8.20;0.22;;;;;;;17.71;33.57;102637.88;16692469;26;20011;-51
2024/04/11 12:48:29;;;;;;;0.00;0.00;;;;;;;18.09;33.81;102624.44;16708775;26;20004;-53
2024/04/11 12:56:11;;;;;;;0.00;0.00;;;;;;;17.91;34.31;102617.00;16678336;26;20364;-51
2024/04/11 13:03:55;;;;;;;0.00;0.00;;;;;;;17.59;34.93;102621.41;16660677;26;20001;-48
2024/04/11 13:11:43;;;;;;;0.32;0.25;;;;;;;17.96;34.66;102624.50;16693381;26;20012;-52
2024/04/11 13:19:19;;;;;;;0.40;0.20;;;;;;;17.94;34.88;102621.16;16694676;26;20018;-48
2024/04/11 13:26:58;;;;;;;0.63;0.40;;;;;;;18.53;33.77;102618.19;16663405;26;20091;-48
2024/04/11 13:34:50;;;;;;;0.00;0.00;;;;;;;17.72;35.88;102628.69;16693454;26;20028;-49
2024/04/11 13:42:32;;;;;;;0.30;0.30;;;;;;;18.24;34.62;102610.59;16693786;26;20006;-50
2024/04/11 13:50:34;;;;;;;0.00;0.00;;;;;;;18.59;35.09;102608.31;16676682;26;20159;-53
2024/04/11 13:58:15;;;;;;;0.05;0.05;;;;;;;18.31;34.68;102603.25;16681061;26;20012;-50
2024/04/11 14:05:59;;;;;;;0.00;0.00;;;;;;;17.88;36.04;102573.94;16678950;26;20022;-48
2024/04/11 14:13:43;;;;;;;0.17;0.10;;;;;;;18.32;35.91;102602.19;16690888;26;20030;-48
2024/04/11 14:21:48;;;;;;;0.00;0.00;;;;;;;18.88;34.79;102581.59;16687216;26;20079;-52
2024/04/11 14:29:22;;;;;;;0.20;0.20;;;;;;;18.92;34.65;102582.81;16686471;26;20008;-50
2024/04/11 14:37:30;;;;;;;0.30;0.25;;;;;;;18.97;35.82;102591.16;16691581;26;20004;-51
2024/04/11 14:45:09;;;;;;;0.10;0.10;;;;;;;17.92;36.67;102587.94;16690048;26;20012;-52
2024/04/11 14:52:44;;;;;;;0.00;0.00;;;;;;;18.72;38.62;102591.13;16633834;26;20344;-49
2024/04/11 15:00:46;;;;;;;0.03;0.03;;;;;;;18.49;37.89;102578.88;16654699;26;20035;-52
2024/04/11 15:08:27;;;;;;;0.00;0.00;;;;;;;18.20;37.34;102590.34;16667735;26;20326;-48
2024/04/11 15:16:38;;;;;;;0.13;0.08;;;;;;;18.29;38.95;102587.16;16726414;21;20039;-50
2024/04/11 15:24:13;;;;;;;0.00;0.00;;;;;;;18.00;39.95;102587.69;16750450;26;20046;-54
2024/04/11 15:32:05;;;;;;;0.00;0.00;;;;;;;17.80;39.48;102577.72;16752814;26;20014;-52
2024/04/11 15:39:44;;;;;;;0.00;0.00;;;;;;;17.20;39.48;102579.66;16718961;26;20088;-50
2024/04/11 15:47:22;;;;;;;0.00;0.00;;;;;;;18.11;40.10;102587.03;16726766;26;20700;-52
2024/04/11 15:55:08;;;;;;;0.85;0.43;;;;;;;18.38;39.27;102587.75;16713633;26;20000;-53
2024/04/11 16:02:47;;;;;;;0.00;0.00;;;;;;;18.07;39.65;102583.06;16833191;26;20013;-54
2024/04/11 16:10:23;;;;;;;0.38;0.38;;;;;;;18.08;40.92;102601.88;16853901;26;20014;-56
2024/04/11 16:18:03;;;;;;;1.80;0.35;;;;;;;18.05;39.66;102596.03;16850610;26;20007;-55
2024/04/11 16:25:43;;;;;;;0.00;0.00;;;;;;;18.07;39.67;102605.63;16819251;26;20026;-53
2024/04/11 16:33:23;;;;;;;0.00;0.00;;;;;;;18.12;39.54;102596.84;16866723;26;20135;-55
2024/04/11 16:41:06;;;;;;;0.00;0.00;;;;;;;17.70;40.45;102580.00;16864283;26;20562;-57
2024/04/11 16:48:43;;;;;;;;;;;;;;;17.74;41.14;102591.31;16896746;26;20334;-57
2024/04/11 16:56:27;;;;;;;0.00;0.00;;;;;;;17.54;41.40;102586.75;16860313;26;19929;-57
2024/04/11 17:04:07;;;;;;;0.00;0.00;;;;;;;17.67;41.30;102580.44;16850037;26;20009;-56
2024/04/11 17:11:45;;;;;;;0.43;0.03;;;;;;;17.55;41.71;102593.00;16866671;26;20014;-57
2024/04/11 17:19:39;;;;;;;0.00;0.00;;;;;;;17.51;41.96;102580.91;16840416;26;20003;-54
2024/04/11 17:27:15;;;;;;;0.00;0.00;;;;;;;17.62;42.22;102574.81;16819678;26;20281;-53
2024/04/11 17:34:54;;;;;;;0.00;0.00;;;;;;;17.53;42.65;102581.50;16847610;26;20071;-55
2024/04/11 17:42:31;;;;;;;0.00;0.00;;;;;;;17.45;43.85;102584.47;16834687;26;20046;-57
2024/04/11 17:50:10;;;;;;;0.00;0.00;;;;;;;17.23;44.84;102576.53;16807428;26;20010;-58
2024/04/11 17:57:50;;;;;;;0.00;0.00;;;;;;;17.08;46.10;102586.78;16816997;26;20398;-53
2024/04/11 18:05:29;;;;;;;0.00;0.00;;;;;;;16.80;45.76;102595.09;16858881;26;20398;-55
2024/04/11 18:13:05;;;;;;;0.00;0.00;;;;;;;16.66;47.57;102598.78;16837989;26;19999;-51
2024/04/11 18:20:44;;;;;;;0.00;0.00;;;;;;;16.36;46.69;102593.69;16806589;26;20033;-57
2024/04/11 18:28:25;;;;;;;0.20;0.20;;;;;;;16.10;48.42;102590.91;16877028;26;20030;-54
2024/04/11 18:36:14;;;;;;;0.00;0.00;;;;;;;15.75;49.06;102585.50;16870673;26;19999;-54
2024/04/11 18:43:49;;;;;;;0.32;0.10;;;;;;;15.35;51.51;102603.31;16843118;26;20014;-54
2024/04/11 19:21:03;;;;;;;0.35;0.30;;;;;;;14.32;54.25;102635.09;16779194;26;20533;-54
2024/04/11 19:28:43;;;;;;;0.77;0.65;;;;;;;14.09;54.03;102650.59;16608799;26;20000;-52
2024/04/11 19:36:22;;;;;;;0.00;0.00;;;;;;;13.99;54.79;102654.41;16625059;26;20005;-52
2024/04/11 19:43:59;;;;;;;0.00;0.00;;;;;;;13.97;55.22;102652.91;16562844;26;20171;-51
2024/04/11 19:51:39;;;;;;;0.10;0.10;;;;;;;14.12;55.81;102658.28;16571718;26;20041;-54
2024/04/11 19:59:20;;;;;;;0.00;0.00;;;;;;;14.21;55.05;102665.28;16564559;26;20080;-52
2024/04/11 20:07:05;;;;;;;0.00;0.00;;;;;;;14.29;54.55;102666.00;16567156;26;20012;-53
2024/04/11 20:14:44;;;;;;;0.00;0.00;;;;;;;14.01;55.74;102665.84;16567563;26;20160;-51
2024/04/11 20:22:21;;;;;;;0.00;0.00;;;;;;;14.20;56.82;102671.72;16609673;26;20040;-58
2024/04/11 20:30:00;;;;;;;0.00;0.00;;;;;;;14.37;55.50;102665.09;16677534;26;20008;-52
2024/04/11 20:37:43;;;;;;;0.13;0.13;;;;;;;14.22;56.47;102661.53;16675841;26;20123;-57
2024/04/11 20:45:29;;;;;;;0.10;0.10;;;;;;;14.04;56.91;102672.75;16682152;26;20106;-55
2024/04/11 21:40:22;;;;;;;0.08;0.08;;;;;;;14.73;59.26;102686.75;16673127;26;20000;-52
2024/04/11 21:47:58;;;;;;;0.00;0.00;;;;;;;14.73;59.19;102689.44;16637762;26;20458;-53
2024/04/11 21:55:38;;;;;;;0.10;0.10;;;;;;;15.05;59.55;102688.13;16575690;26;20001;-53
2024/04/11 22:03:18;;;;;;;0.00;0.00;;;;;;;15.04;59.48;102691.88;16642165;26;20000;-51
2024/04/11 22:11:01;;;;;;;0.00;0.00;;;;;;;15.22;58.69;102686.03;16592617;26;20373;-50
2024/04/11 22:18:39;;;;;;;0.05;0.05;;;;;;;15.19;60.23;102683.69;16577246;26;20001;-48
2024/04/11 22:26:18;;;;;;;0.57;0.43;;;;;;;15.14;60.09;102696.13;16574550;26;20071;-50
2024/04/11 22:33:54;;;;;;;0.00;0.00;;;;;;;15.04;60.57;102691.88;16665196;26;20671;-51
2024/04/11 22:41:32;;;;;;;0.00;0.00;;;;;;;15.02;61.03;102703.94;16573114;26;20001;-51
2024/04/11 22:49:21;;;;;;;0.43;0.43;;;;;;;14.82;61.93;102716.38;16658395;26;20000;-52
2024/04/11 22:57:07;;;;;;;2.17;0.68;;;;;;;14.98;62.12;102722.41;16587661;26;20016;-50
2024/04/11 23:04:47;;;;;;;0.00;0.00;;;;;;;15.05;61.62;102722.47;16571149;26;20013;-52
2024/04/11 23:12:36;;;;;;;0.20;0.20;;;;;;;15.19;61.02;102726.16;16570325;26;20013;-51
2024/04/11 23:20:23;;;;;;;;;;;;;;;15.17;60.83;102725.53;16572798;26;20330;-52
2024/04/11 23:28:05;;;;;;;0.38;0.20;;;;;;;15.18;61.02;102727.19;16591629;26;19925;-49
2024/04/11 23:35:48;;;;;;;0.10;0.10;;;;;;;15.08;62.38;102724.81;16679328;26;20008;-51
2024/04/11 23:43:26;;;;;;;0.00;0.00;;;;;;;15.15;61.72;102720.28;16649204;26;19996;-51
2024/04/11 23:51:01;;;;;;;0.13;0.13;;;;;;;15.12;61.46;102709.88;16649113;26;20007;-49
2024/04/11 23:58:51;;;;;;;0.00;0.00;;;;;;;15.21;61.75;102703.31;16679659;26;20011;-52
